Milton, FL

4:00 AM CDT on June 29, 2017 (GMT -0500)
JnK Ranch | | Change Station

Elev 210 ft 30.76 °N, 87.05 °W | Updated 30 seconds ago

Rain
Rain Mist
72.0 °F
Feels Like 72.0 °F
N
2.0
Wind Variable Wind from East
Gusts 2.0 mph

Today
High -- | Low -- °F
--% Chance of Precip.
Yesterday
High -- | Low -- °F
Precip. -- in
Pressure 30.01 in
Visibility 3.0 miles
Clouds Few 600 ft
Mostly Cloudy 3100 ft
Overcast 11000 ft
Dew Point 72 °F
Humidity 99%
Rainfall 0.02 in
Snow Depth Not available.
5:48 AM 7:55 PM
Waxing Crescent, 33% visible
METAR KNSE 290856Z AUTO 10005KT 3SM RA BR FEW006 BKN031 OVC110 22/22 A3005 RMK AO2 RAB30 SLP161 P0023 60023 T02220222 55000 $
Pressure 30.01 in
Visibility 3.0 miles
Clouds Few 600 ft
Mostly Cloudy 3100 ft
Overcast 11000 ft
Dew Point 72 °F
Humidity 99%
Rainfall 0.02 in
Snow Depth Not available.
5:48 AM 7:55 PM
Waxing Crescent, 33% visible
METAR KNSE 290856Z AUTO 10005KT 3SM RA BR FEW006 BKN031 OVC110 22/22 A3005 RMK AO2 RAB30 SLP161 P0023 60023 T02220222 55000 $

Get Severe Weather Alerts

Thanks for signing up!

Be on the lookout for a verification email in your inbox.

You'll start receiving the daily forecast at 6 AM.

×

10-Day Weather Forecast

Almanac

Astronomy

Jun. 29, 2017 Rise Set
Actual Time
Civil Twilight
Nautical Twilight
Astronomical Twilight
Moon
Length of Visible Light
Length of Day
Tomorrow will be .
, % of the Moon is Illuminated

Today's Extremes

State Highs State Lows

Community

WunderPhotos

Category 6

Welcome to Category 6. This is the collective home for Weather Underground's featured writeups by Dr. Jeff Masters (right), Bob Henson (left), Chris Burt, and other regular contributors.

Nearby

Air Quality

  Air Quality AQ Index Pollutant
Not available.

Snow Depth

Station Depth Elevation

Earthquake Activity

City Distance Mag. Time & Date
Minimum magnitude displayed is 2.5.

Coastal Water Temperatures

Place Temperature

Stations

Nearby Weather Stations

Station Location Temp. Windchill Dew Point Humidity Wind Precip. Elev Updated Type
                   

Watches & Warnings

There are currently no watches in effect.